Historyczne dane pomiarowe

Dodano dane terminowe – wersja testowa.

Dane z okresu 1951-2019

Wersja bazy: 1.34 [2019-03-16, lista zmian], aktualizacja planowana na 2019-04-15

Dane meteo z obszaru Polski uzyskane na podstawie danych udostępnionych przez Instytut Meteorologii i Gospodarki Wodnej – Państwowy Instytut Badawczy.

 

Wybierz Datę:    

       

TemperaturaWilgotnośćWiatrCiśnienieOpadyŚniegCzas trwania zjawisk
 Stacja t tx tn tng RH VA  wxwx mslp ppp RRR   cm mm wxwxwxwxwxwxwx
1994-08-14 12.2 15.3 7.2 2.3 57.5- 3.3 3.0---- 0.0------------
1994-08-13 14.7 19.1 13.1 11.1 76.5- 6.7 4.0---- 0.0------------
1994-08-12 14.9 18.6 12.0 8.8 90.3- 7.3 0.0---- 1.0------------
1994-08-11 16.8 23.0 13.1 10.6 84.8- 5.3 4.0---- 3.2------------
1994-08-10 18.3 26.1 9.4 6.6 79.3- 3.0 0.0---- 8.5------------
1994-08-09 18.2 21.9 16.1 15.3 88.5- 5.3 1.3---- 8.8------------
1994-08-08 17.7 21.9 14.9 13.1 90.5- 7.7 1.0---- 15.6------------
1994-08-07 19.4 24.3 15.8 11.6 86.0- 7.7 0.7---- 11.7------------
1994-08-06 19.6 26.7 10.2 7.1 71.0- 3.3 0.3---- 0.0------------
1994-08-05 21.3 30.1 6.7 4.2 63.5- 0.3 0.7---- 0.0------------
1994-08-04 19.7 26.5 8.2 5.3 57.5- 0.7 1.0---- 0.0------------
1994-08-03 21.1 25.1 18.0 15.9 69.8- 3.0 1.7---- 0.0------------
1994-08-02 21.0 28.6 12.4 9.5 68.5- 1.7 4.7---- 0.0------------
1994-08-01 24.5 32.3 10.8 9.8 56.8- 0.0 1.0---- 0.0------------
1994-07-31 23.0 31.9 10.9 8.9 64.0- 0.7 1.7---- 0.0------------
1994-07-30 22.6 31.9 10.9 8.5 63.3- 0.7 0.3---- 0.0------------
1994-07-29 21.9 31.8 10.5 8.2 69.8- 2.0 0.3---- 0.0------------
1994-07-28 21.0 30.9 10.4 7.6 69.0- 0.3 1.0---- 0.0------------
1994-07-27 22.1 28.8 14.9 11.7 68.5- 5.3 0.0---- 0.0------------
1994-07-26 20.6 29.9 10.7 7.6 70.3- 3.0 0.0---- 0.0------------
1994-07-25 19.3 28.7 9.1 6.5 71.8- 2.3 0.7---- 0.0------------
1994-07-24 18.3 27.3 7.2 4.4 68.5- 0.7 1.0---- 0.0------------
1994-07-23 18.5 26.6 6.0 3.0 64.3- 1.0 1.3---- 0.0------------
1994-07-22 17.1 26.2 5.7 3.1 66.8- 1.0 0.3---- 0.0------------
1994-07-21 16.0 24.0 4.8 1.9 74.0- 0.0 1.7---- 0.0------------
1994-07-20 16.8 21.4 9.0 5.2 62.0- 0.7 1.7---- 0.0------------
1994-07-19 14.7 19.0 13.0 12.0 87.5- 8.0 0.0---- 1.0------------
1994-07-18 16.2 20.8 10.1 8.1 93.5- 5.0 0.7---- 5.0------------
1994-07-17 16.0 23.3 11.6 9.0 97.8- 5.3 0.0---- 20.3------------
1994-07-16 20.8 23.5 17.1 14.3 69.5- 3.7 2.0---- 0.0------------
1994-07-15 19.6 27.0 10.2 7.4 71.8- 4.7 2.7---- 0.0------------
1994-07-14 19.9 27.3 8.9 5.6 70.5- 3.0 0.0---- 0.0------------
1994-07-13 19.8 26.1 9.1 6.2 62.5- 1.7 0.7---- 0.0------------
1994-07-12 19.0 23.9 10.1 7.6 76.3- 4.3 3.3---- 0.0------------
1994-07-11 19.1 23.4 10.2 8.2 69.8- 0.7 2.7---- 0.0------------
1994-07-10 15.5 19.3 12.1 11.4 82.0- 6.0 4.0---- 0.4------------
1994-07-09 14.2 16.5 13.1 9.7 81.5- 7.0 3.0---- 17.5------------
1994-07-08 13.4 15.5 7.8 4.9 71.5- 5.3 4.0---- 0.0------------
1994-07-07 14.6 21.7 9.0 6.9 91.0- 6.3 2.0---- 0.4------------
1994-07-06 17.2 21.9 11.4 8.7 82.8- 4.7 1.0---- 12.6------------
1994-07-05 19.9 26.3 13.7 10.6 73.0- 6.3 3.0---- 0.0------------
1994-07-04 18.8 27.7 7.6 4.6 68.5- 2.0 0.3---- 0.0------------
1994-07-03 17.9 26.7 5.6 2.5 68.0- 1.0 0.0---- 0.0------------
1994-07-02 15.3 22.9 5.2 2.1 71.8- 0.3 1.3---- 0.0------------
1994-07-01 15.0 20.5 5.6 2.3 71.3- 2.7 1.7---- 0.0------------
1994-06-30 17.6 26.1 14.9 14.8 83.8- 6.0 2.3---- 22.6------------
1994-06-29 23.9 30.4 14.4 11.6 71.3- 3.3 1.3---- 4.0------------
1994-06-28 23.0 29.4 14.1 11.3 73.8- 3.7 1.0---- 0.0------------
1994-06-27 21.6 28.8 11.1 7.6 74.0- 3.7 1.0---- 0.0------------
1994-06-26 20.8 26.8 11.0 5.2 61.8- 1.3 3.7---- 0.0------------
1994-06-25 14.0 23.9 -0.2 -3.4 65.0- 0.3 1.7---- 0.0------------
1994-06-24 13.3 18.5 3.2 -1.9 52.8- 0.3 1.0---- 0.0------------
1994-06-23 14.6 18.4 11.7 8.4 52.0- 1.0 4.7---- 0.0------------
1994-06-22 17.2 23.3 9.6 6.1 74.8- 6.3 4.7---- 0.0------------
1994-06-21 14.5 20.3 4.3 0.4 71.5- 2.3 2.3---- 0.0------------
1994-06-20 15.0 19.8 12.9 8.1 69.8- 5.7 3.0---- 0.0------------
1994-06-19 17.6 24.3 11.4 9.0 62.3- 3.3 5.0---- 0.0------------
1994-06-18 10.5 17.0 -0.1 -3.4 77.5- 7.3 5.0---- 1.6------------
1994-06-17 8.8 12.6 6.3 3.3 74.0- 4.3 1.3---- 0.0------------
1994-06-16 9.8 13.6 4.1 0.6 75.0- 7.7 4.7---- 3.1------------
293.8 ms

 

Źródłem pochodzenia danych jest Instytut Meteorologii i Gospodarki Wodnej – Państwowy Instytut Badawczy. Dane Instytutu Meteorologii i Gospodarki Wodnej – Państwowego Instytutu Badawczego zostały przetworzone.

Dane źródłowe można odnaleźć na stronie https://dane.imgw.pl